Time;durP1;ratioP1;P1;durP2;ratioP2;P2;SDS_P1;SDS_P2;PMS_P1;PMS_P2;Temp;Humidity;BMP_temperature;BMP_pressure;BME280_temperature;BME280_humidity;BME280_pressure;Samples;Min_cycle;Max_cycle;Signal;HPM_P1;HPM_P2
2021/12/14 00:00:19;;;;;;;14.07;9.43;;;8.50;99.90;;;;;;6282014;22;20148;-49
2021/12/14 00:02:46;;;;;;;13.48;9.50;;;7.80;99.90;;;;;;6283132;22;20494;-49
2021/12/14 00:05:14;;;;;;;16.08;10.13;;;8.40;99.90;;;;;;6283046;22;20148;-48
2021/12/14 00:07:40;;;;;;;15.15;9.75;;;8.50;99.90;;;;;;6272472;22;20182;-49
2021/12/14 00:10:29;;;;;;;13.23;8.75;;;8.30;99.90;;;;;;6283632;22;20587;-49
2021/12/14 00:13:04;;;;;;;13.63;10.10;;;8.40;99.90;;;;;;6273107;22;20266;-49
2021/12/14 00:15:30;;;;;;;12.70;8.30;;;8.10;99.90;;;;;;6272795;22;20174;-49
2021/12/14 00:18:01;;;;;;;11.40;8.63;;;8.30;99.90;;;;;;6281230;22;20180;-49
2021/12/14 00:20:36;;;;;;;14.60;9.55;;;8.30;99.90;;;;;;6281391;22;20136;-49
2021/12/14 00:25:38;;;;;;;13.55;10.40;;;8.20;99.90;;;;;;6282869;22;20171;-49
2021/12/14 00:28:27;;;;;;;14.10;9.95;;;8.20;99.90;;;;;;6272666;22;20592;-49
2021/12/14 00:30:56;;;;;;;12.18;8.52;;;8.10;99.90;;;;;;6271894;22;20160;-49
2021/12/14 00:33:30;;;;;;;12.90;8.90;;;8.10;99.90;;;;;;6283175;22;20513;-49
2021/12/14 00:35:56;;;;;;;11.00;8.25;;;7.50;99.90;;;;;;6272612;22;20156;-48
2021/12/14 00:38:22;;;;;;;13.23;9.73;;;8.30;99.90;;;;;;6281379;22;20272;-48
2021/12/14 00:40:58;;;;;;;11.45;7.95;;;8.30;99.90;;;;;;6270760;22;20163;-49
2021/12/14 00:43:24;;;;;;;10.95;8.30;;;8.20;99.90;;;;;;6282992;22;20168;-49
2021/12/14 00:45:50;;;;;;;10.57;8.55;;;8.30;99.90;;;;;;6270625;22;20156;-49
2021/12/14 00:48:17;;;;;;;14.73;8.40;;;8.20;99.90;;;;;;6272001;22;20188;-48
2021/12/14 00:50:48;;;;;;;12.82;7.95;;;8.40;99.90;;;;;;6271735;22;20497;-48
2021/12/14 00:53:14;;;;;;;10.98;7.53;;;8.10;99.90;;;;;;6272152;22;20255;-49
2021/12/14 00:55:43;;;;;;;11.90;8.90;;;8.00;99.90;;;;;;6281040;22;20989;-49
2021/12/14 00:58:09;;;;;;;11.48;7.90;;;8.20;99.90;;;;;;6271898;22;20180;-49
2021/12/14 01:00:46;;;;;;;11.63;7.20;;;8.00;99.90;;;;;;6272154;22;20153;-49
2021/12/14 01:03:13;;;;;;;11.85;8.02;;;8.10;99.90;;;;;;6282806;22;20259;-49
2021/12/14 01:05:48;;;;;;;13.20;9.32;;;8.10;99.90;;;;;;6282625;22;20183;-49
2021/12/14 01:08:18;;;;;;;11.02;7.47;;;7.90;99.90;;;;;;6271372;22;20152;-49
2021/12/14 01:11:04;;;;;;;11.50;7.80;;;8.40;99.90;;;;;;6271788;22;20163;-49
2021/12/14 01:13:33;;;;;;;11.80;7.05;;;8.30;99.90;;;;;;6272248;22;20188;-48
2021/12/14 01:16:19;;;;;;;11.77;7.93;;;8.20;99.90;;;;;;6272167;22;20153;-49
2021/12/14 01:19:00;;;;;;;13.20;8.05;;;8.10;99.90;;;;;;6282722;22;20442;-49
2021/12/14 01:24:09;;;;;;;11.57;6.90;;;8.10;99.90;;;;;;6285336;22;20184;-49
2021/12/14 01:26:39;;;;;;;9.63;7.53;;;7.90;99.90;;;;;;6274054;22;20153;-49
2021/12/14 01:29:09;;;;;;;12.35;7.90;;;7.70;99.90;;;;;;6284605;22;20167;-49
2021/12/14 01:31:39;;;;;;;11.73;7.03;;;7.80;99.90;;;;;;6274162;22;20170;-49
2021/12/14 01:34:16;;;;;;;11.10;7.35;;;8.00;99.90;;;;;;6274258;22;20236;-49
2021/12/14 01:36:47;;;;;;;11.00;6.75;;;8.20;99.90;;;;;;6273217;22;20491;-49
2021/12/14 01:39:47;;;;;;;10.98;8.10;;;8.10;99.90;;;;;;6272230;22;20176;-49
2021/12/14 01:42:17;;;;;;;11.75;7.18;;;7.60;99.90;;;;;;6273343;22;20153;-49
2021/12/14 01:44:48;;;;;;;12.77;7.75;;;8.00;99.90;;;;;;6273700;22;20169;-49
2021/12/14 01:47:27;;;;;;;11.82;7.60;;;8.20;99.90;;;;;;6270984;22;20201;-49
2021/12/14 01:49:53;;;;;;;11.38;7.45;;;8.20;99.90;;;;;;6273837;22;20225;-49
2021/12/14 01:52:23;;;;;;;11.95;8.13;;;8.20;99.90;;;;;;6284214;22;20160;-49
2021/12/14 01:54:53;;;;;;;12.73;7.20;;;8.20;99.90;;;;;;6274286;22;20418;-49
2021/12/14 01:57:21;;;;;;;11.57;7.32;;;7.60;99.90;;;;;;6282161;22;20623;-49
2021/12/14 01:59:49;;;;;;;14.52;7.50;;;8.20;99.90;;;;;;6282585;22;20235;-49
2021/12/14 02:02:31;;;;;;;9.23;6.60;;;8.40;99.90;;;;;;6284183;22;20153;-49
2021/12/14 02:05:00;;;;;;;8.82;6.70;;;8.10;99.90;;;;;;6284846;22;20129;-49
2021/12/14 02:07:28;;;;;;;11.77;7.28;;;7.40;99.90;;;;;;6275354;22;20157;-49
2021/12/14 02:10:01;;;;;;;11.02;6.85;;;8.10;99.90;;;;;;6285148;22;20148;-49
2021/12/14 02:12:28;;;;;;;11.30;6.95;;;7.90;99.90;;;;;;6274332;22;20152;-49
2021/12/14 02:15:05;;;;;;;11.30;6.97;;;8.00;99.90;;;;;;6284777;22;20159;-49
2021/12/14 02:17:31;;;;;;;11.13;7.50;;;8.00;99.90;;;;;;6272161;22;20217;-49
2021/12/14 02:19:56;;;;;;;10.10;6.10;;;8.00;99.90;;;;;;6282312;22;20543;-49
2021/12/14 02:22:22;;;;;;;10.67;6.83;;;7.90;99.90;;;;;;6273531;22;20449;-49
2021/12/14 02:24:50;;;;;;;9.67;6.63;;;7.80;99.90;;;;;;6284022;22;20773;-49
2021/12/14 02:27:16;;;;;;;10.98;7.55;;;7.80;99.90;;;;;;6283662;22;20156;-48
2021/12/14 02:29:47;;;;;;;8.77;6.05;;;7.90;99.90;;;;;;6284139;22;20172;-49
2021/12/14 02:32:21;;;;;;;9.63;6.43;;;7.80;99.90;;;;;;6284199;22;20148;-49
2021/12/14 02:34:51;;;;;;;8.85;6.75;;;8.10;99.90;;;;;;6283936;22;20439;-49
2021/12/14 02:37:21;;;;;;;9.60;7.10;;;7.90;99.90;;;;;;6271770;22;20227;-49
2021/12/14 02:40:00;;;;;;;9.77;6.47;;;8.00;99.90;;;;;;6272523;22;20163;-48
2021/12/14 02:42:29;;;;;;;10.48;7.10;;;7.60;99.90;;;;;;6273839;22;20379;-49
2021/12/14 02:44:56;;;;;;;9.10;5.93;;;7.90;99.90;;;;;;6273559;22;20152;-49
2021/12/14 02:47:22;;;;;;;10.95;7.10;;;7.60;99.90;;;;;;6272227;22;20153;-49
2021/12/14 02:49:51;;;;;;;11.55;7.18;;;7.70;99.90;;;;;;6273459;22;20159;-48
2021/12/14 02:52:31;;;;;;;9.60;7.00;;;8.10;99.90;;;;;;6283846;22;20501;-48
2021/12/14 02:55:20;;;;;;;10.10;6.47;;;8.10;99.90;;;;;;6273452;22;20160;-49
2021/12/14 02:57:49;;;;;;;9.63;6.40;;;7.40;99.90;;;;;;6271960;22;20182;-49
2021/12/14 03:00:26;;;;;;;9.10;6.43;;;8.20;99.90;;;;;;6272366;22;20163;-49
2021/12/14 03:02:53;;;;;;;10.48;6.43;;;8.30;99.90;;;;;;6284029;22;20218;-48
2021/12/14 03:05:28;;;;;;;8.38;6.25;;;8.20;99.90;;;;;;6283105;22;20153;-48
2021/12/14 03:08:00;;;;;;;8.93;5.78;;;8.10;99.90;;;;;;6273385;22;20167;-48
2021/12/14 03:12:59;;;;;;;9.90;5.90;;;7.90;99.90;;;;;;6283855;22;20192;-49
2021/12/14 03:15:31;;;;;;;10.57;6.50;;;7.70;99.90;;;;;;6273085;22;20163;-48
2021/12/14 03:18:01;;;;;;;8.55;6.30;;;7.80;99.90;;;;;;6272807;22;20180;-49
2021/12/14 03:20:37;;;;;;;8.90;6.00;;;8.00;99.90;;;;;;6282049;22;20133;-49
2021/12/14 03:23:05;;;;;;;12.80;6.78;;;7.90;99.90;;;;;;6283626;22;20488;-49
2021/12/14 03:25:34;;;;;;;11.60;7.35;;;7.90;99.90;;;;;;6272534;22;20607;-49
2021/12/14 03:28:00;;;;;;;9.32;6.03;;;8.00;99.90;;;;;;6283774;22;20148;-49
2021/12/14 03:30:26;;;;;;;8.98;5.95;;;7.90;99.90;;;;;;6273325;22;20232;-49
2021/12/14 03:33:03;;;;;;;8.90;6.10;;;7.70;99.90;;;;;;6273280;22;20572;-49
2021/12/14 03:35:40;;;;;;;7.63;5.50;;;7.50;99.90;;;;;;6281086;22;20143;-49
2021/12/14 03:38:12;;;;;;;10.88;6.22;;;7.60;99.90;;;;;;6271194;22;20555;-49
2021/12/14 03:40:38;;;;;;;12.48;6.10;;;7.70;99.90;;;;;;6271045;22;20159;-49
2021/12/14 03:43:04;;;;;;;9.90;5.50;;;7.60;99.90;;;;;;6273007;22;20172;-49
2021/12/14 03:45:30;;;;;;;13.85;6.75;;;7.70;99.90;;;;;;6283029;22;20362;-49
2021/12/14 03:47:59;;;;;;;8.23;5.47;;;7.40;99.90;;;;;;6272914;22;20231;-49
2021/12/14 03:50:33;;;;;;;8.55;5.57;;;7.80;99.90;;;;;;6272339;22;20699;-49
2021/12/14 03:52:59;;;;;;;8.68;5.50;;;7.30;99.90;;;;;;6283022;22;20172;-49
2021/12/14 03:55:33;;;;;;;6.60;4.40;;;7.50;99.90;;;;;;6282305;22;20149;-49
2021/12/14 03:58:00;;;;;;;8.90;5.18;;;7.60;99.90;;;;;;6281850;22;20509;-49
2021/12/14 04:00:35;;;;;;;8.05;4.80;;;7.60;99.90;;;;;;6271446;22;20160;-49
2021/12/14 04:03:05;;;;;;;7.80;4.75;;;7.70;99.90;;;;;;6283025;22;20191;-49
2021/12/14 04:05:31;;;;;;;6.50;4.28;;;7.50;99.90;;;;;;6272429;22;20194;-49
2021/12/14 04:07:57;;;;;;;7.07;4.35;;;7.50;99.90;;;;;;6283369;22;20148;-49
2021/12/14 04:10:34;;;;;;;6.80;4.40;;;7.20;99.90;;;;;;6272684;22;20160;-49
2021/12/14 04:13:00;;;;;;;5.05;4.10;;;7.50;99.90;;;;;;6280776;22;20377;-49
2021/12/14 04:15:27;;;;;;;6.55;4.20;;;7.40;99.90;;;;;;6272674;22;20160;-49
2021/12/14 04:17:53;;;;;;;7.28;4.82;;;7.40;99.90;;;;;;6272633;22;20519;-49
2021/12/14 04:20:27;;;;;;;6.07;4.50;;;7.30;99.90;;;;;;6272188;22;20149;-49
2021/12/14 04:22:53;;;;;;;5.82;4.55;;;7.50;99.90;;;;;;6282698;22;20395;-49
2021/12/14 04:25:23;;;;;;;6.18;4.30;;;7.80;99.90;;;;;;6282721;22;20174;-49
2021/12/14 04:27:51;;;;;;;5.13;3.65;;;7.50;99.90;;;;;;6272292;22;20202;-50
2021/12/14 04:30:18;;;;;;;6.88;5.13;;;7.50;99.90;;;;;;6270475;22;20160;-49
2021/12/14 04:32:54;;;;;;;6.47;4.70;;;7.20;99.90;;;;;;6268761;22;20180;-50
2021/12/14 04:35:20;;;;;;;4.53;3.67;;;7.20;99.90;;;;;;6271762;22;20180;-48
2021/12/14 04:37:53;;;;;;;8.30;5.40;;;7.30;99.90;;;;;;6271403;22;20180;-49
2021/12/14 04:54:24;;;;;;;5.80;4.00;;;7.30;99.90;;;;;;6283688;22;20770;-49
2021/12/14 04:56:50;;;;;;;8.15;5.43;;;7.30;99.90;;;;;;6287390;22;20501;-48
2021/12/14 04:59:26;;;;;;;6.30;4.97;;;7.30;99.90;;;;;;6289725;22;20176;-49
2021/12/14 05:01:58;;;;;;;6.43;4.35;;;7.30;99.90;;;;;;6283341;22;20128;-50
2021/12/14 05:04:26;;;;;;;6.25;4.60;;;6.90;99.90;;;;;;6273179;22;20176;-50
2021/12/14 05:07:02;;;;;;;6.18;4.32;;;7.00;99.90;;;;;;6273421;22;20239;-50
2021/12/14 05:09:33;;;;;;;6.85;4.53;;;7.10;99.90;;;;;;6275017;22;20144;-51
2021/12/14 05:12:07;;;;;;;6.95;4.40;;;7.00;99.90;;;;;;6285059;22;20144;-50
2021/12/14 05:14:37;;;;;;;6.20;4.20;;;7.20;99.90;;;;;;6274878;22;20514;-50
2021/12/14 05:17:08;;;;;;;5.43;3.88;;;7.20;99.90;;;;;;6281014;22;20155;-50
2021/12/14 05:19:37;;;;;;;6.30;4.30;;;7.30;99.90;;;;;;6284821;22;20132;-50
2021/12/14 05:22:24;;;;;;;6.28;4.25;;;6.80;99.90;;;;;;6283545;22;20148;-50
2021/12/14 05:25:00;;;;;;;7.43;4.93;;;7.30;99.90;;;;;;6273254;22;20175;-51
2021/12/14 05:27:38;;;;;;;6.55;5.57;;;7.00;99.90;;;;;;6282086;22;20140;-51
2021/12/14 05:30:10;;;;;;;7.50;4.80;;;7.10;99.90;;;;;;6284387;22;20143;-50
2021/12/14 05:32:38;;;;;;;6.00;4.38;;;7.10;99.90;;;;;;6273425;22;20164;-51
2021/12/14 05:35:07;;;;;;;7.22;4.85;;;6.90;99.90;;;;;;6283744;22;20151;-50
2021/12/14 05:37:41;;;;;;;6.05;4.78;;;7.00;99.90;;;;;;6274039;22;20179;-49
2021/12/14 05:40:16;;;;;;;8.00;5.38;;;7.00;99.90;;;;;;6285473;22;20137;-49
2021/12/14 05:45:28;;;;;;;6.57;5.47;;;7.30;99.90;;;;;;6273894;22;20177;-50
2021/12/14 05:47:57;;;;;;;6.75;4.70;;;7.00;99.90;;;;;;6284343;22;20160;-49
2021/12/14 05:50:33;;;;;;;7.28;5.15;;;7.10;99.90;;;;;;6273073;22;20164;-49
2021/12/14 05:53:00;;;;;;;6.70;4.53;;;6.60;99.90;;;;;;6284894;22;20176;-48
2021/12/14 05:55:30;;;;;;;6.72;4.85;;;7.00;99.90;;;;;;6273071;22;20552;-48
2021/12/14 05:57:58;;;;;;;6.78;5.22;;;7.00;99.90;;;;;;6284298;22;20168;-48
2021/12/14 06:00:26;;;;;;;6.65;3.85;;;6.80;99.90;;;;;;6282168;22;20182;-48
2021/12/14 06:02:52;;;;;;;8.00;5.18;;;6.90;99.90;;;;;;6284272;22;20685;-49
2021/12/14 06:05:20;;;;;;;6.40;4.47;;;7.00;99.90;;;;;;6270769;22;20152;-48
2021/12/14 06:07:47;;;;;;;5.15;4.03;;;7.00;99.90;;;;;;6283714;22;20618;-48
2021/12/14 06:10:16;;;;;;;6.93;4.78;;;6.40;99.90;;;;;;6284677;22;20151;-49
2021/12/14 06:12:43;;;;;;;5.60;4.15;;;6.90;99.90;;;;;;6284275;22;20541;-49
2021/12/14 06:15:17;;;;;;;6.28;4.78;;;6.90;99.90;;;;;;6283780;22;20280;-48
2021/12/14 06:17:43;;;;;;;6.65;4.85;;;7.00;99.90;;;;;;6272621;22;20229;-49
2021/12/14 06:20:15;;;;;;;6.30;4.10;;;6.40;99.90;;;;;;6272563;22;20165;-49
2021/12/14 06:22:43;;;;;;;4.43;3.88;;;6.80;99.90;;;;;;6271417;22;20398;-49
2021/12/14 06:25:15;;;;;;;6.53;5.13;;;7.20;99.90;;;;;;6273268;22;20576;-49
2021/12/14 06:27:42;;;;;;;10.38;4.55;;;7.00;99.90;;;;;;6283761;22;20497;-49
2021/12/14 06:30:10;;;;;;;5.57;4.10;;;6.80;99.90;;;;;;6271946;22;20160;-49
2021/12/14 06:32:44;;;;;;;5.93;4.40;;;6.60;99.90;;;;;;6283353;22;20148;-50
2021/12/14 06:35:20;;;;;;;6.38;4.25;;;6.70;99.90;;;;;;6272224;22;20148;-49
2021/12/14 06:41:13;;;;;;;6.53;4.63;;;6.70;99.90;;;;;;6271432;22;20448;-51
2021/12/14 06:43:54;;;;;;;6.88;5.22;;;6.10;99.90;;;;;;6268667;22;20183;-51
2021/12/14 06:46:35;;;;;;;7.53;5.05;;;6.70;99.90;;;;;;6272460;22;20140;-51
2021/12/14 06:49:09;;;;;;;5.90;5.28;;;6.40;99.90;;;;;;6283011;22;20194;-51
2021/12/14 06:51:39;;;;;;;8.05;4.90;;;6.50;99.90;;;;;;6272291;22;20611;-50
2021/12/14 06:54:12;;;;;;;7.38;6.07;;;6.60;99.90;;;;;;6272781;22;20175;-49
2021/12/14 06:56:38;;;;;;;7.82;5.30;;;6.30;99.90;;;;;;6271754;22;20470;-50
2021/12/14 06:59:09;;;;;;;7.65;5.65;;;6.60;99.90;;;;;;6282987;22;20250;-50
2021/12/14 07:01:38;;;;;;;5.97;4.47;;;6.30;99.90;;;;;;6283649;22;20136;-48
2021/12/14 07:04:13;;;;;;;6.03;4.60;;;6.70;99.90;;;;;;6272392;22;20172;-49
2021/12/14 07:06:46;;;;;;;8.13;5.22;;;6.60;99.90;;;;;;6271865;22;20152;-49
2021/12/14 07:09:17;;;;;;;8.52;5.20;;;6.60;99.90;;;;;;6272746;22;20160;-48
2021/12/14 07:11:54;;;;;;;7.05;5.60;;;6.50;99.90;;;;;;6272830;22;20214;-49
2021/12/14 07:14:32;;;;;;;9.00;6.32;;;6.80;99.90;;;;;;6282192;22;20167;-49
2021/12/14 07:17:09;;;;;;;9.55;5.75;;;6.60;99.90;;;;;;6283024;22;20167;-49
2021/12/14 07:19:43;;;;;;;7.05;5.10;;;6.50;99.90;;;;;;6281952;22;20167;-50
2021/12/14 07:22:23;;;;;;;6.47;5.35;;;6.70;99.90;;;;;;6272741;22;20198;-49
2021/12/14 07:24:59;;;;;;;7.88;5.82;;;6.70;99.90;;;;;;6272451;22;20642;-50
2021/12/14 07:27:29;;;;;;;7.47;5.85;;;6.40;99.90;;;;;;6282617;22;20156;-50
2021/12/14 07:30:13;;;;;;;8.40;6.85;;;6.60;99.90;;;;;;6273187;22;20154;-50
2021/12/14 07:32:49;;;;;;;7.72;5.75;;;6.50;99.90;;;;;;6282781;22;20146;-51
2021/12/14 07:35:35;;;;;;;6.90;5.35;;;6.30;99.90;;;;;;6282513;22;20144;-50
2021/12/14 07:38:04;;;;;;;6.57;5.82;;;6.10;99.90;;;;;;6270558;22;20182;-50
2021/12/14 07:40:42;;;;;;;8.00;5.68;;;6.40;99.90;;;;;;6282437;22;20152;-51
2021/12/14 07:43:18;;;;;;;6.63;5.40;;;6.50;99.90;;;;;;6272621;22;20179;-52
2021/12/14 07:45:46;;;;;;;7.18;5.40;;;6.70;99.90;;;;;;6272257;22;20149;-52
2021/12/14 07:48:12;;;;;;;8.35;5.60;;;6.40;99.90;;;;;;6282652;22;20156;-52
2021/12/14 07:50:45;;;;;;;7.15;5.53;;;6.50;99.90;;;;;;6281727;22;20171;-51
2021/12/14 07:53:11;;;;;;;8.15;5.38;;;6.70;99.90;;;;;;6272463;22;20184;-51
2021/12/14 07:55:43;;;;;;;7.30;4.60;;;6.90;99.90;;;;;;6282479;22;20232;-50
2021/12/14 07:58:10;;;;;;;6.80;5.20;;;6.50;99.90;;;;;;6282234;22;20539;-50
2021/12/14 08:00:40;;;;;;;8.38;4.78;;;6.40;99.90;;;;;;6272828;22;20266;-49
2021/12/14 08:03:07;;;;;;;6.68;4.93;;;7.00;99.90;;;;;;6272074;22;20183;-50
2021/12/14 08:05:40;;;;;;;5.55;4.82;;;6.10;99.90;;;;;;6272438;22;20546;-50
2021/12/14 08:08:30;;;;;;;6.82;5.40;;;6.70;99.90;;;;;;6271213;22;20149;-51
2021/12/14 08:11:27;;;;;;;9.05;5.07;;;6.70;99.90;;;;;;6272021;22;20180;-50
2021/12/14 08:13:53;;;;;;;7.00;5.25;;;6.60;99.90;;;;;;6272264;22;20262;-49
2021/12/14 08:16:19;;;;;;;6.57;5.35;;;6.30;99.90;;;;;;6282262;22;20148;-50
2021/12/14 08:18:46;;;;;;;6.32;5.20;;;6.80;99.90;;;;;;6281656;22;20176;-50
2021/12/14 08:21:19;;;;;;;7.18;6.32;;;6.90;99.90;;;;;;6272438;22;20271;-50
2021/12/14 08:23:58;;;;;;;8.73;6.90;;;6.30;99.90;;;;;;6282595;22;20168;-51
2021/12/14 08:26:52;;;;;;;7.05;6.00;;;6.70;99.90;;;;;;6271051;22;20243;-50
2021/12/14 08:29:27;;;;;;;7.05;5.55;;;6.60;99.90;;;;;;6272491;22;20159;-50
2021/12/14 08:32:05;;;;;;;7.57;5.85;;;6.50;99.90;;;;;;6282570;22;20174;-50
2021/12/14 08:34:35;;;;;;;7.03;5.00;;;6.60;99.90;;;;;;6282221;22;20164;-49
2021/12/14 08:37:08;;;;;;;8.70;6.10;;;7.20;99.90;;;;;;6281894;22;20186;-51
2021/12/14 08:39:47;;;;;;;8.23;5.70;;;7.10;99.90;;;;;;6272330;22;20238;-49
2021/12/14 08:42:26;;;;;;;6.55;5.80;;;7.00;99.90;;;;;;6271179;22;20151;-49
2021/12/14 08:44:58;;;;;;;6.13;5.47;;;7.10;99.90;;;;;;6281478;22;20179;-49
2021/12/14 08:47:33;;;;;;;5.97;5.28;;;6.90;99.90;;;;;;6281324;22;20140;-48
2021/12/14 08:50:04;;;;;;;6.88;5.55;;;7.20;99.90;;;;;;6282146;22;20138;-48
2021/12/14 08:52:30;;;;;;;6.57;5.72;;;6.80;99.90;;;;;;6282783;22;20140;-48
2021/12/14 08:54:58;;;;;;;6.72;5.15;;;7.20;99.90;;;;;;6272380;22;20157;-49
2021/12/14 08:57:26;;;;;;;5.97;4.88;;;7.50;99.90;;;;;;6280527;22;20323;-51
2021/12/14 08:59:56;;;;;;;5.75;5.10;;;7.80;99.90;;;;;;6271074;22;20163;-51
2021/12/14 09:02:24;;;;;;;5.75;4.38;;;7.60;99.90;;;;;;6282636;22;20180;-51
2021/12/14 09:04:58;;;;;;;5.22;4.15;;;7.80;99.90;;;;;;6272145;22;20249;-51
2021/12/14 09:07:30;;;;;;;5.25;4.43;;;8.00;99.90;;;;;;6271835;22;20597;-51
2021/12/14 09:09:58;;;;;;;5.20;4.65;;;7.60;99.90;;;;;;6282544;22;20136;-51
2021/12/14 09:12:36;;;;;;;5.72;4.68;;;7.60;99.90;;;;;;6282116;22;20148;-51
2021/12/14 09:15:09;;;;;;;6.63;5.32;;;8.00;99.90;;;;;;6282984;22;20164;-51
2021/12/14 09:17:35;;;;;;;6.70;5.30;;;8.30;99.90;;;;;;6271970;22;20184;-51
2021/12/14 09:20:29;;;;;;;6.10;5.30;;;7.60;99.90;;;;;;6272404;22;20634;-50
2021/12/14 09:22:59;;;;;;;5.68;5.05;;;8.30;99.90;;;;;;6281979;22;20442;-51
2021/12/14 09:25:29;;;;;;;6.63;5.07;;;8.70;99.90;;;;;;6282607;22;20491;-51
2021/12/14 09:27:57;;;;;;;8.65;7.05;;;9.00;99.90;;;;;;6282699;22;20149;-51
2021/12/14 09:30:25;;;;;;;5.10;4.18;;;9.30;99.90;;;;;;6284811;22;20227;-51
2021/12/14 09:32:51;;;;;;;8.13;5.07;;;9.70;99.90;;;;;;6283112;22;20169;-51
2021/12/14 09:35:21;;;;;;;6.18;5.05;;;9.90;99.90;;;;;;6283988;22;20479;-51
2021/12/14 09:37:49;;;;;;;6.32;5.03;;;9.70;99.90;;;;;;6283787;22;20223;-51
2021/12/14 09:40:23;;;;;;;8.18;5.70;;;9.20;99.90;;;;;;6273187;22;20181;-51
2021/12/14 09:42:50;;;;;;;6.13;5.00;;;9.00;99.90;;;;;;6284463;22;20615;-51
2021/12/14 09:45:21;;;;;;;7.90;5.25;;;9.20;99.90;;;;;;6283819;22;20592;-51
2021/12/14 09:47:47;;;;;;;6.80;5.00;;;8.90;99.90;;;;;;6273552;22;20169;-51
2021/12/14 09:50:27;;;;;;;8.00;7.20;;;9.60;99.90;;;;;;6280551;22;20153;-52
2021/12/14 09:52:55;;;;;;;5.85;4.78;;;9.90;99.90;;;;;;6283257;22;20183;-51
2021/12/14 09:55:24;;;;;;;5.28;4.65;;;10.20;99.90;;;;;;6284085;22;20553;-51
2021/12/14 09:57:57;;;;;;;5.70;5.10;;;9.70;99.90;;;;;;6273559;22;20187;-51
2021/12/14 10:00:29;;;;;;;5.75;4.70;;;9.90;99.90;;;;;;6283921;22;20187;-50
2021/12/14 10:02:58;;;;;;;9.38;5.20;;;9.80;99.90;;;;;;6284239;22;20176;-50
2021/12/14 10:05:35;;;;;;;6.30;4.82;;;10.20;99.90;;;;;;6269465;22;20526;-51
2021/12/14 10:08:14;;;;;;;6.50;5.82;;;10.10;99.90;;;;;;6281202;22;20592;-50
2021/12/14 10:10:52;;;;;;;7.03;5.80;;;9.50;99.90;;;;;;6272683;22;20252;-50
2021/12/14 10:13:19;;;;;;;6.97;6.35;;;9.20;99.90;;;;;;6271948;22;20485;-50
2021/12/14 10:15:51;;;;;;;5.45;4.88;;;9.80;99.90;;;;;;6283521;22;20173;-50
2021/12/14 10:18:33;;;;;;;5.20;4.68;;;9.80;99.90;;;;;;6283816;22;20171;-50
2021/12/14 10:21:29;;;;;;;7.85;4.68;;;9.70;99.90;;;;;;6283781;22;20506;-50
2021/12/14 10:23:56;;;;;;;10.48;5.30;;;9.10;99.90;;;;;;6282102;22;20771;-51
2021/12/14 10:26:24;;;;;;;5.25;4.38;;;9.60;99.90;;;;;;6272984;22;20180;-51
2021/12/14 10:28:54;;;;;;;5.35;4.82;;;9.60;99.90;;;;;;6283225;22;20490;-50
2021/12/14 10:31:28;;;;;;;8.00;5.18;;;9.50;99.90;;;;;;6273696;22;20161;-51
2021/12/14 10:33:56;;;;;;;6.20;4.80;;;9.20;99.90;;;;;;6274330;22;20176;-52
2021/12/14 10:36:33;;;;;;;6.68;5.03;;;9.20;99.90;;;;;;6273402;22;20157;-51
2021/12/14 10:44:11;;;;;;;7.32;5.72;;;9.60;99.90;;;;;;6283925;22;20218;-50
2021/12/14 10:46:45;;;;;;;5.60;4.90;;;9.70;99.90;;;;;;6283414;22;20548;-51
2021/12/14 10:49:13;;;;;;;6.40;4.97;;;9.70;99.90;;;;;;6283909;22;20201;-51
2021/12/14 10:51:42;;;;;;;6.15;5.55;;;9.50;99.90;;;;;;6275001;22;20165;-51
2021/12/14 10:54:12;;;;;;;6.82;5.90;;;9.70;99.90;;;;;;6283730;22;20177;-51
2021/12/14 10:56:46;;;;;;;5.53;4.95;;;10.00;99.90;;;;;;6282915;22;20140;-51
2021/12/14 10:59:16;;;;;;;8.00;5.25;;;10.10;99.90;;;;;;6272690;22;20188;-51
2021/12/14 11:01:49;;;;;;;7.25;4.85;;;10.10;99.90;;;;;;6272838;22;20165;-51
2021/12/14 11:04:16;;;;;;;6.85;5.32;;;10.30;99.90;;;;;;6272275;22;20207;-51
2021/12/14 11:06:45;;;;;;;8.65;5.57;;;10.40;99.90;;;;;;6272423;22;20208;-51
2021/12/14 11:11:55;;;;;;;5.85;5.25;;;10.10;99.90;;;;;;6283041;22;20145;-51
2021/12/14 11:14:25;;;;;;;7.05;5.07;;;10.20;99.90;;;;;;6273029;22;20181;-51
2021/12/14 11:19:44;;;;;;;6.47;5.78;;;10.00;99.90;;;;;;6272845;22;20226;-51
2021/12/14 11:22:24;;;;;;;6.50;5.15;;;10.00;99.90;;;;;;6283000;22;20182;-50
2021/12/14 11:25:09;;;;;;;7.72;5.60;;;10.00;99.90;;;;;;6282776;22;20192;-51
2021/12/14 11:27:40;;;;;;;6.47;5.40;;;10.10;99.90;;;;;;6270372;22;20157;-51
2021/12/14 11:30:23;;;;;;;6.75;5.53;;;10.70;99.90;;;;;;6273322;22;20161;-50
2021/12/14 11:33:36;;;;;;;7.18;5.88;;;10.80;99.90;;;;;;6282470;22;20240;-50
2021/12/14 11:36:15;;;;;;;8.70;5.88;;;10.80;99.90;;;;;;6148407;23;20656;-50
2021/12/14 11:38:53;;;;;;;6.70;4.72;;;10.90;99.90;;;;;;6258124;22;20180;-50
2021/12/14 11:41:27;;;;;;;8.20;5.45;;;10.60;99.90;;;;;;6282680;22;20133;-50
2021/12/14 11:44:02;;;;;;;7.88;6.32;;;10.40;99.90;;;;;;6272960;22;20179;-50
2021/12/14 11:46:31;;;;;;;7.78;6.45;;;10.40;99.90;;;;;;6282567;22;20155;-50
2021/12/14 11:48:59;;;;;;;5.78;5.25;;;10.40;99.90;;;;;;6272270;22;20388;-50
2021/12/14 11:51:28;;;;;;;7.78;5.95;;;10.30;99.90;;;;;;6281841;22;20164;-50
2021/12/14 11:53:56;;;;;;;7.68;5.30;;;10.40;99.90;;;;;;6282297;22;20188;-50
2021/12/14 11:56:25;;;;;;;6.30;5.70;;;10.60;99.90;;;;;;6271709;22;20173;-50
2021/12/14 11:58:56;;;;;;;7.80;6.00;;;10.80;99.90;;;;;;6282413;22;20171;-50
2021/12/14 12:01:24;;;;;;;6.05;5.35;;;10.70;99.90;;;;;;6271976;22;20244;-50
2021/12/14 12:03:56;;;;;;;6.47;5.88;;;10.40;99.90;;;;;;6271501;22;20201;-50
2021/12/14 12:09:29;;;;;;;8.20;6.30;;;10.20;99.90;;;;;;6282934;22;20149;-50
2021/12/14 12:12:15;;;;;;;6.38;5.78;;;9.90;99.90;;;;;;6272262;22;20612;-51
2021/12/14 12:15:04;;;;;;;8.40;6.03;;;10.60;99.90;;;;;;6253235;22;20185;-51
2021/12/14 12:18:00;;;;;;;7.88;6.90;;;10.80;99.90;;;;;;6271912;22;20554;-51
2021/12/14 12:20:30;;;;;;;6.97;5.97;;;11.10;99.90;;;;;;6246984;22;20153;-51
2021/12/14 12:23:03;;;;;;;7.82;6.03;;;10.60;99.90;;;;;;6272320;22;20191;-50
2021/12/14 12:25:59;;;;;;;7.93;5.82;;;10.40;99.90;;;;;;6282441;22;20535;-51
2021/12/14 12:28:33;;;;;;;7.18;6.28;;;10.40;99.90;;;;;;6282206;22;20207;-51
2021/12/14 12:31:05;;;;;;;9.52;7.40;;;10.50;99.90;;;;;;6272352;22;20160;-51
2021/12/14 12:33:47;;;;;;;10.00;7.55;;;10.40;99.90;;;;;;6271645;22;20185;-51
2021/12/14 12:36:18;;;;;;;13.15;7.50;;;10.40;99.90;;;;;;6277347;22;20466;-51
2021/12/14 12:38:52;;;;;;;10.70;7.10;;;10.20;99.90;;;;;;6270916;22;20188;-49
2021/12/14 12:41:43;;;;;;;8.68;7.68;;;10.30;99.90;;;;;;6271628;22;20214;-49
2021/12/14 12:44:21;;;;;;;8.43;7.30;;;10.20;99.90;;;;;;6282113;22;20442;-49
2021/12/14 12:47:14;;;;;;;9.35;7.63;;;10.10;99.90;;;;;;6281488;22;20653;-49
2021/12/14 12:49:43;;;;;;;8.35;7.05;;;10.40;99.90;;;;;;6280182;22;20180;-49
2021/12/14 12:52:18;;;;;;;9.68;7.70;;;10.20;99.90;;;;;;6281684;22;20247;-49
2021/12/14 12:55:14;;;;;;;10.10;7.28;;;9.80;99.90;;;;;;6272097;22;20517;-49
2021/12/14 12:57:52;;;;;;;9.85;8.70;;;10.10;99.90;;;;;;6280294;22;20201;-49
2021/12/14 13:00:41;;;;;;;10.90;7.88;;;9.90;99.90;;;;;;6282482;22;20139;-49
2021/12/14 13:03:21;;;;;;;9.40;7.82;;;9.70;99.90;;;;;;6271346;22;20169;-49
2021/12/14 13:05:59;;;;;;;9.20;8.02;;;9.80;99.90;;;;;;6283235;22;20140;-49
2021/12/14 13:08:28;;;;;;;8.77;7.90;;;9.60;99.90;;;;;;6273258;22;20573;-49
2021/12/14 13:10:59;;;;;;;9.90;8.90;;;9.90;99.90;;;;;;6272542;22;20234;-49
2021/12/14 13:13:29;;;;;;;9.90;7.70;;;9.90;99.90;;;;;;6273952;22;20480;-49
2021/12/14 13:16:02;;;;;;;10.25;9.25;;;9.30;99.90;;;;;;6272779;22;20156;-49
2021/12/14 13:18:33;;;;;;;12.27;8.40;;;9.80;99.90;;;;;;6283206;22;20222;-49
2021/12/14 13:21:04;;;;;;;9.88;8.27;;;9.50;99.90;;;;;;6283870;22;20129;-49
2021/12/14 13:24:01;;;;;;;14.75;8.23;;;9.60;99.90;;;;;;6273495;22;20177;-49
2021/12/14 13:26:27;;;;;;;9.15;8.07;;;9.90;99.90;;;;;;6273363;22;20163;-48
2021/12/14 13:28:57;;;;;;;8.73;7.80;;;9.70;99.90;;;;;;6282317;22;20149;-49
2021/12/14 13:31:25;;;;;;;9.65;8.23;;;9.70;99.90;;;;;;6273539;22;20714;-49
2021/12/14 13:33:51;;;;;;;12.38;8.98;;;9.60;99.90;;;;;;6284002;22;20783;-49
2021/12/14 13:36:17;;;;;;;9.17;7.40;;;9.70;99.90;;;;;;6283909;22;20187;-49
2021/12/14 13:38:42;;;;;;;9.20;8.30;;;9.50;99.90;;;;;;6271991;22;20568;-49
2021/12/14 13:41:28;;;;;;;10.60;8.53;;;9.30;99.90;;;;;;6273768;22;20375;-52
2021/12/14 13:43:53;;;;;;;8.73;7.85;;;9.40;99.90;;;;;;6283736;22;20164;-51
2021/12/14 13:46:19;;;;;;;8.60;7.60;;;8.90;99.90;;;;;;6281160;22;20227;-50
2021/12/14 13:48:45;;;;;;;8.93;8.02;;;9.30;99.90;;;;;;6272644;22;20205;-50
2021/12/14 13:51:14;;;;;;;11.53;9.10;;;9.20;99.90;;;;;;6273344;22;20221;-49
2021/12/14 13:53:42;;;;;;;8.98;8.07;;;9.20;99.90;;;;;;6283568;22;20395;-49
2021/12/14 13:56:33;;;;;;;9.63;7.72;;;9.10;99.90;;;;;;6272702;22;20161;-49
2021/12/14 13:59:00;;;;;;;11.73;8.20;;;9.20;99.90;;;;;;6258773;22;20271;-48
2021/12/14 14:01:48;;;;;;;10.40;8.75;;;9.20;99.90;;;;;;6283718;22;20167;-48